Time;durP1;ratioP1;P1;durP2;ratioP2;P2;SDS_P1;SDS_P2;PMS_P1;PMS_P2;Temp;Humidity;BMP_temperature;BMP_pressure;BME280_temperature;BME280_humidity;BME280_pressure;Samples;Min_cycle;Max_cycle;Signal;HPM_P1;HPM_P2
2021/07/01 00:02:15;;;;;;;8.70;7.17;;;16.80;99.90;;;;;;5066729;28;20460;-85
2021/07/01 00:04:42;;;;;;;10.83;7.40;;;16.70;99.90;;;;;;5063556;28;20556;-87
2021/07/01 00:07:09;;;;;;;8.37;6.90;;;16.70;99.90;;;;;;5069187;28;20459;-87
2021/07/01 00:09:36;;;;;;;10.80;8.20;;;16.80;99.90;;;;;;5068826;28;20451;-88
2021/07/01 00:12:03;;;;;;;9.33;7.70;;;16.80;99.90;;;;;;5067807;28;20861;-88
2021/07/01 00:14:30;;;;;;;10.83;7.40;;;16.80;99.90;;;;;;5069025;28;20499;-87
2021/07/01 00:16:57;;;;;;;8.73;7.23;;;16.80;99.90;;;;;;5071090;28;20436;-88
2021/07/01 00:19:24;;;;;;;9.20;7.40;;;16.70;99.90;;;;;;5071254;28;20443;-87
2021/07/01 00:21:51;;;;;;;8.50;6.33;;;16.70;99.90;;;;;;5071113;28;20445;-86
2021/07/01 00:24:21;;;;;;;6.87;6.17;;;16.70;99.90;;;;;;5070385;28;20484;-87
2021/07/01 00:26:49;;;;;;;7.70;6.03;;;16.70;99.90;;;;;;5077770;28;20441;-87
2021/07/01 00:29:16;;;;;;;6.63;5.03;;;16.70;99.90;;;;;;5056907;28;20455;-86
2021/07/01 00:31:42;;;;;;;8.80;6.33;;;16.70;99.90;;;;;;5054338;28;20483;-87
2021/07/01 00:34:09;;;;;;;7.00;6.30;;;16.80;99.90;;;;;;5051133;28;20471;-84
2021/07/01 00:36:36;;;;;;;6.27;5.63;;;16.70;99.90;;;;;;5068159;28;20486;-85
2021/07/01 00:39:04;;;;;;;6.50;5.90;;;16.70;99.90;;;;;;5071632;28;20459;-87
2021/07/01 00:41:31;;;;;;;7.97;6.60;;;16.70;99.90;;;;;;5068494;28;20488;-85
2021/07/01 00:43:59;;;;;;;7.73;6.73;;;16.80;99.90;;;;;;5068228;28;20455;-86
2021/07/01 00:46:26;;;;;;;7.50;6.60;;;16.80;99.90;;;;;;5053512;28;20456;-86
2021/07/01 00:49:13;;;;;;;7.97;7.27;;;16.70;99.90;;;;;;5041046;28;20444;-87
2021/07/01 00:51:46;;;;;;;8.43;7.00;;;16.70;99.90;;;;;;5063208;28;20463;-88
2021/07/01 00:57:49;;;;;;;7.90;6.50;;;16.70;99.90;;;;;;4942053;28;20466;-86
2021/07/01 01:00:47;;;;;;;9.27;8.13;;;16.70;99.90;;;;;;5024582;28;20442;-87
2021/07/01 01:03:02;;;;;;;9.10;8.20;;;16.70;99.90;;;;;;5035308;28;20457;-86
2021/07/01 01:05:29;;;;;;;8.83;7.90;;;16.70;99.90;;;;;;5033348;28;20497;-86
2021/07/01 01:07:56;;;;;;;10.43;8.00;;;16.70;99.90;;;;;;5006693;28;20481;-87
2021/07/01 01:10:22;;;;;;;11.80;9.00;;;16.70;99.90;;;;;;5041613;28;20935;-85
2021/07/01 01:12:49;;;;;;;9.77;7.77;;;16.70;99.90;;;;;;5021883;28;20477;-85
2021/07/01 01:15:27;;;;;;;9.70;8.40;;;16.70;99.90;;;;;;5038313;28;20464;-85
2021/07/01 01:17:53;;;;;;;8.10;7.13;;;16.70;99.90;;;;;;5024558;28;20445;-84
2021/07/01 01:20:20;;;;;;;9.90;7.97;;;16.60;99.90;;;;;;5025610;28;20445;-86
2021/07/01 01:22:47;;;;;;;12.47;8.50;;;16.60;99.90;;;;;;5022390;28;20472;-85
2021/07/01 01:25:14;;;;;;;10.20;7.57;;;16.60;99.90;;;;;;5023945;28;20490;-85
2021/07/01 01:27:40;;;;;;;10.50;8.00;;;16.60;99.90;;;;;;5007219;28;20454;-84
2021/07/01 01:30:11;;;;;;;9.23;7.57;;;16.50;99.90;;;;;;5024895;28;20465;-87
2021/07/01 01:32:39;;;;;;;8.13;6.90;;;16.50;99.90;;;;;;5006992;28;20481;-86
2021/07/01 01:35:06;;;;;;;7.10;6.37;;;16.60;99.90;;;;;;5024664;28;20474;-85
2021/07/01 01:37:33;;;;;;;7.03;6.20;;;16.60;99.90;;;;;;5018216;28;20813;-85
2021/07/01 01:40:00;;;;;;;7.17;6.47;;;16.60;99.90;;;;;;5039022;28;20520;-86
2021/07/01 01:42:27;;;;;;;6.83;6.13;;;16.60;99.90;;;;;;5037133;28;20445;-86
2021/07/01 01:44:53;;;;;;;6.30;5.70;;;16.50;99.90;;;;;;5025305;28;20545;-85
2021/07/01 01:47:21;;;;;;;7.47;6.13;;;16.50;99.90;;;;;;5027077;28;20473;-86
2021/07/01 01:49:50;;;;;;;7.30;5.50;;;16.60;99.90;;;;;;5027631;28;20561;-86
2021/07/01 01:52:17;;;;;;;6.27;5.67;;;16.60;99.90;;;;;;5043492;28;20548;-85
2021/07/01 01:54:45;;;;;;;6.70;5.60;;;16.60;99.90;;;;;;5044849;28;20473;-85
2021/07/01 01:57:12;;;;;;;10.23;6.00;;;16.50;99.90;;;;;;5045595;28;21044;-89
2021/07/01 01:59:43;;;;;;;6.40;5.80;;;16.40;99.90;;;;;;5043961;28;20450;-88
2021/07/01 02:02:10;;;;;;;6.63;6.00;;;16.30;99.90;;;;;;5025480;28;20963;-85
2021/07/01 02:04:37;;;;;;;6.93;6.17;;;16.30;99.90;;;;;;5028408;28;20462;-85
2021/07/01 02:07:04;;;;;;;6.20;5.70;;;16.40;99.90;;;;;;5029246;28;20437;-89
2021/07/01 02:09:30;;;;;;;8.27;7.10;;;16.40;99.90;;;;;;5050572;28;20452;-88
2021/07/01 02:11:57;;;;;;;7.43;5.83;;;16.50;99.90;;;;;;5032425;28;20454;-87
2021/07/01 02:14:24;;;;;;;5.63;5.07;;;16.50;99.90;;;;;;5029150;28;20503;-86
2021/07/01 02:16:51;;;;;;;10.50;5.50;;;16.50;99.90;;;;;;5033021;28;20461;-86
2021/07/01 02:19:17;;;;;;;5.50;5.00;;;16.50;99.90;;;;;;5036164;28;20493;-88
2021/07/01 02:21:44;;;;;;;8.10;5.87;;;16.50;99.90;;;;;;5033402;28;20446;-87
2021/07/01 02:24:11;;;;;;;7.90;6.37;;;16.50;99.90;;;;;;5024435;28;20497;-86
2021/07/01 02:26:37;;;;;;;6.07;5.50;;;16.40;99.90;;;;;;5021875;28;20505;-89
2021/07/01 02:29:04;;;;;;;6.17;5.57;;;16.50;99.90;;;;;;5044135;28;20480;-85
2021/07/01 02:31:31;;;;;;;6.33;5.73;;;16.50;99.90;;;;;;5044870;28;20453;-89
2021/07/01 02:33:57;;;;;;;6.47;5.67;;;16.50;99.90;;;;;;5026944;28;20586;-84
2021/07/01 02:36:24;;;;;;;6.90;4.80;;;16.50;99.90;;;;;;5012219;28;20488;-85
2021/07/01 02:38:51;;;;;;;6.30;5.00;;;16.50;99.90;;;;;;5038768;28;20445;-85
2021/07/01 02:41:18;;;;;;;5.73;4.97;;;16.50;99.90;;;;;;5019469;28;20473;-86
2021/07/01 02:43:44;;;;;;;5.67;5.17;;;16.50;99.90;;;;;;5020579;28;20749;-88
2021/07/01 02:46:11;;;;;;;6.20;5.60;;;16.40;99.90;;;;;;5019720;28;21004;-85
2021/07/01 02:48:38;;;;;;;6.40;4.87;;;16.30;99.90;;;;;;5018505;28;20453;-87
2021/07/01 02:51:05;;;;;;;6.00;5.50;;;16.30;99.90;;;;;;5034327;28;21401;-85
2021/07/01 02:53:32;;;;;;;6.00;5.40;;;16.30;99.90;;;;;;5036804;28;20489;-87
2021/07/01 02:55:58;;;;;;;6.73;6.13;;;16.30;99.90;;;;;;5021672;28;20460;-85
2021/07/01 02:58:25;;;;;;;8.13;6.07;;;16.40;99.90;;;;;;5023701;28;20449;-85
2021/07/01 03:00:51;;;;;;;6.37;5.77;;;16.40;99.90;;;;;;5022852;28;20457;-84
2021/07/01 03:03:18;;;;;;;6.10;5.33;;;16.40;99.90;;;;;;5045322;28;20456;-85
2021/07/01 03:05:45;;;;;;;6.77;6.07;;;16.40;99.90;;;;;;5026635;28;20491;-84
2021/07/01 03:08:11;;;;;;;10.37;7.40;;;16.40;99.90;;;;;;5049173;28;20544;-85
2021/07/01 03:10:38;;;;;;;7.30;5.93;;;16.40;99.90;;;;;;5009443;28;20930;-85
2021/07/01 03:13:05;;;;;;;7.63;6.60;;;16.40;99.90;;;;;;5020767;28;20485;-84
2021/07/01 03:15:34;;;;;;;6.90;6.20;;;16.40;99.90;;;;;;5003675;28;20469;-85
2021/07/01 03:18:01;;;;;;;6.43;5.83;;;16.40;99.90;;;;;;5022521;28;20446;-86
2021/07/01 03:20:30;;;;;;;6.70;6.10;;;16.50;99.90;;;;;;5024153;28;20561;-83
2021/07/01 03:23:03;;;;;;;7.20;6.50;;;16.40;99.90;;;;;;5026521;28;20452;-85
2021/07/01 03:25:45;;;;;;;6.87;6.17;;;16.40;99.90;;;;;;5023134;28;20480;-86
2021/07/01 03:28:13;;;;;;;6.80;6.20;;;16.40;99.90;;;;;;5013261;28;20485;-85
2021/07/01 03:30:50;;;;;;;7.70;6.90;;;16.40;99.90;;;;;;5025925;28;20571;-84
2021/07/01 03:33:17;;;;;;;6.30;5.70;;;16.40;99.90;;;;;;5025011;28;20495;-85
2021/07/01 03:35:44;;;;;;;7.70;6.30;;;16.30;99.90;;;;;;5008212;28;21017;-84
2021/07/01 03:38:11;;;;;;;6.53;5.93;;;16.40;99.90;;;;;;5027114;28;20938;-85
2021/07/01 03:40:38;;;;;;;7.80;7.00;;;16.40;99.90;;;;;;5010845;28;20457;-84
2021/07/01 03:43:10;;;;;;;7.70;7.00;;;16.40;99.90;;;;;;5026204;28;20472;-85
2021/07/01 03:45:43;;;;;;;7.80;7.10;;;16.40;99.90;;;;;;5026929;28;20492;-84
2021/07/01 03:48:15;;;;;;;7.40;6.20;;;16.40;99.90;;;;;;5009925;28;20469;-86
2021/07/01 03:50:42;;;;;;;7.00;6.40;;;16.40;99.90;;;;;;5025403;28;20458;-85
2021/07/01 03:53:09;;;;;;;7.27;6.67;;;16.40;99.90;;;;;;5023437;28;20524;-86
2021/07/01 03:55:36;;;;;;;7.20;6.57;;;16.40;99.90;;;;;;5025323;28;20924;-86
2021/07/01 03:58:06;;;;;;;7.53;6.73;;;16.40;99.90;;;;;;5025246;28;20995;-86
2021/07/01 04:00:34;;;;;;;7.33;6.63;;;16.40;99.90;;;;;;5024659;28;20976;-87
2021/07/01 04:03:01;;;;;;;6.67;6.17;;;16.50;99.90;;;;;;5009989;28;21122;-86
2021/07/01 04:05:35;;;;;;;7.17;6.00;;;16.50;99.90;;;;;;5010223;28;20472;-84
2021/07/01 04:08:06;;;;;;;7.43;6.73;;;16.40;99.90;;;;;;5029097;28;20480;-87
2021/07/01 04:10:47;;;;;;;6.97;5.60;;;16.40;99.90;;;;;;5029174;28;20498;-86
2021/07/01 04:13:23;;;;;;;7.47;6.67;;;16.40;99.90;;;;;;5028812;28;20500;-86
2021/07/01 04:15:53;;;;;;;8.50;7.00;;;16.40;99.90;;;;;;5009616;28;20487;-85
2021/07/01 04:18:43;;;;;;;7.70;6.70;;;16.40;99.90;;;;;;5008691;28;20854;-87
2021/07/01 04:21:16;;;;;;;9.60;6.80;;;16.40;99.90;;;;;;5007116;28;20560;-84
2021/07/01 04:23:43;;;;;;;10.40;8.23;;;16.40;99.90;;;;;;5008700;28;20470;-85
2021/07/01 04:26:28;;;;;;;10.80;9.20;;;16.40;99.90;;;;;;5009244;28;20449;-85
2021/07/01 04:29:00;;;;;;;8.90;8.10;;;16.40;99.90;;;;;;5025944;28;20780;-86
2021/07/01 04:31:37;;;;;;;9.50;8.60;;;16.40;99.90;;;;;;5007686;28;21489;-84
2021/07/01 04:34:08;;;;;;;9.80;8.80;;;16.30;99.90;;;;;;5026390;28;20512;-85
2021/07/01 04:36:44;;;;;;;10.90;9.80;;;16.20;99.90;;;;;;5008710;28;20464;-85
2021/07/01 04:39:16;;;;;;;9.70;8.80;;;16.20;99.90;;;;;;5023490;28;20454;-85
2021/07/01 04:42:00;;;;;;;13.23;10.60;;;16.20;99.90;;;;;;5027294;28;20449;-84
2021/07/01 04:44:27;;;;;;;12.67;10.00;;;16.20;99.90;;;;;;5007401;28;20512;-87
2021/07/01 04:46:53;;;;;;;11.43;9.93;;;16.30;99.90;;;;;;5029135;28;20847;-85
2021/07/01 04:49:20;;;;;;;10.13;8.90;;;16.30;99.90;;;;;;5024556;28;20454;-85
2021/07/01 04:51:47;;;;;;;12.70;8.80;;;16.20;99.90;;;;;;5005129;28;20466;-87
2021/07/01 04:54:14;;;;;;;8.30;7.50;;;16.30;99.90;;;;;;5007800;28;20485;-87
2021/07/01 04:56:43;;;;;;;10.50;8.80;;;16.30;99.90;;;;;;5005469;28;20479;-85
2021/07/01 04:59:15;;;;;;;8.17;6.93;;;16.30;99.90;;;;;;5029646;28;20429;-85
2021/07/01 05:01:45;;;;;;;12.03;8.73;;;16.30;99.90;;;;;;5030435;28;20979;-86
2021/07/01 05:04:14;;;;;;;11.30;8.50;;;16.30;99.90;;;;;;5034086;28;20507;-89
2021/07/01 05:06:46;;;;;;;10.60;8.60;;;16.30;99.90;;;;;;5035445;28;20857;-86
2021/07/01 05:09:16;;;;;;;9.83;8.83;;;16.30;99.90;;;;;;5051367;28;20453;-86
2021/07/01 05:11:42;;;;;;;11.67;8.40;;;16.30;99.90;;;;;;5018206;28;20481;-84
2021/07/01 05:14:09;;;;;;;11.00;7.83;;;16.30;99.90;;;;;;5013095;28;20487;-85
2021/07/01 05:16:36;;;;;;;14.23;9.63;;;16.30;99.90;;;;;;5011883;28;20792;-84
2021/07/01 05:19:03;;;;;;;11.40;8.87;;;16.30;99.90;;;;;;5012092;28;20450;-84
2021/07/01 05:21:54;;;;;;;14.53;9.27;;;16.40;99.90;;;;;;5011907;28;20448;-86
2021/07/01 05:24:21;;;;;;;11.73;8.80;;;16.30;99.90;;;;;;5027133;28;20485;-85
2021/07/01 05:26:48;;;;;;;11.20;9.90;;;16.20;99.90;;;;;;5026815;28;20452;-84
2021/07/01 05:29:17;;;;;;;14.47;9.30;;;16.20;99.90;;;;;;5011707;28;20492;-85
2021/07/01 05:32:05;;;;;;;15.33;9.50;;;16.20;99.90;;;;;;5012152;28;20448;-86
2021/07/01 05:34:31;;;;;;;14.20;9.33;;;16.30;99.90;;;;;;5027636;28;20493;-87
2021/07/01 05:36:58;;;;;;;14.40;9.77;;;16.30;99.90;;;;;;5026592;28;20556;-86
2021/07/01 05:39:25;;;;;;;11.53;9.37;;;16.30;99.90;;;;;;5010004;28;20518;-85
2021/07/01 05:41:52;;;;;;;14.00;10.03;;;16.20;99.90;;;;;;5007130;28;20460;-85
2021/07/01 05:44:19;;;;;;;12.27;9.37;;;16.20;99.90;;;;;;5007269;28;20480;-86
2021/07/01 05:46:46;;;;;;;20.13;10.97;;;16.20;99.90;;;;;;5026516;28;20454;-88
2021/07/01 05:49:13;;;;;;;10.90;9.57;;;16.30;99.90;;;;;;5028329;28;20934;-86
2021/07/01 05:51:40;;;;;;;11.80;9.47;;;16.30;99.90;;;;;;5029443;28;20449;-85
2021/07/01 05:56:37;;;;;;;11.30;8.90;;;16.20;99.90;;;;;;5024771;28;20461;-85
2021/07/01 05:59:06;;;;;;;15.33;9.63;;;16.20;99.90;;;;;;5029465;28;20507;-86
2021/07/01 06:01:33;;;;;;;12.73;9.27;;;16.20;99.90;;;;;;5028504;28;20460;-87
2021/07/01 06:04:04;;;;;;;16.23;10.43;;;16.20;99.90;;;;;;5009178;28;20461;-85
2021/07/01 06:06:35;;;;;;;10.07;8.90;;;16.20;99.90;;;;;;5008151;28;20468;-84
2021/07/01 06:09:03;;;;;;;13.00;8.83;;;16.10;99.90;;;;;;5025628;28;20461;-87
2021/07/01 06:11:33;;;;;;;13.43;9.60;;;16.20;99.90;;;;;;5011895;28;20471;-86
2021/07/01 06:14:05;;;;;;;12.37;9.17;;;16.30;99.90;;;;;;5010052;28;20480;-86
2021/07/01 06:16:34;;;;;;;15.90;9.10;;;16.30;99.90;;;;;;5026573;28;20467;-84
2021/07/01 06:19:04;;;;;;;12.43;8.20;;;16.30;99.90;;;;;;5011286;28;21200;-84
2021/07/01 06:21:32;;;;;;;12.90;7.97;;;16.20;99.90;;;;;;5023751;28;20451;-86
2021/07/01 06:23:58;;;;;;;12.70;8.70;;;16.30;99.90;;;;;;5032643;28;20507;-85
2021/07/01 06:26:29;;;;;;;13.20;8.90;;;16.30;99.90;;;;;;5007513;28;20457;-86
2021/07/01 06:28:56;;;;;;;11.00;8.10;;;16.40;99.90;;;;;;5024818;28;20458;-83
2021/07/01 06:31:23;;;;;;;13.47;7.83;;;16.40;99.90;;;;;;5008454;28;20459;-84
2021/07/01 06:33:50;;;;;;;11.30;8.33;;;16.40;99.90;;;;;;5014010;28;20527;-85
2021/07/01 06:36:20;;;;;;;11.30;7.57;;;16.50;99.90;;;;;;5009515;28;20460;-85
2021/07/01 06:38:52;;;;;;;14.33;8.37;;;16.50;99.90;;;;;;5028783;28;20804;-86
2021/07/01 06:41:20;;;;;;;13.57;8.03;;;16.50;99.90;;;;;;5027738;28;20468;-84
2021/07/01 06:43:49;;;;;;;10.90;7.50;;;16.40;99.90;;;;;;5028264;28;20464;-84
2021/07/01 06:46:19;;;;;;;13.67;7.33;;;16.40;99.90;;;;;;5015396;28;20449;-82
2021/07/01 06:48:48;;;;;;;10.97;7.40;;;16.30;99.90;;;;;;5016335;28;20449;-88
2021/07/01 06:51:18;;;;;;;11.80;6.47;;;16.40;99.90;;;;;;5035325;28;20440;-86
2021/07/01 06:53:46;;;;;;;13.30;7.00;;;16.40;99.90;;;;;;5023718;28;20492;-86
2021/07/01 06:56:13;;;;;;;13.20;7.47;;;16.40;99.90;;;;;;5013458;28;20565;-87
2021/07/01 06:58:41;;;;;;;12.30;6.73;;;16.30;99.90;;;;;;5027542;28;20479;-86
2021/07/01 07:01:08;;;;;;;11.87;6.70;;;16.30;99.90;;;;;;5010088;28;20594;-86
2021/07/01 07:03:35;;;;;;;7.53;5.50;;;16.20;99.90;;;;;;5010928;28;20466;-85
2021/07/01 07:06:03;;;;;;;13.17;7.03;;;16.30;99.90;;;;;;5027820;28;21326;-83
2021/07/01 07:08:30;;;;;;;10.40;6.37;;;16.20;99.90;;;;;;5011384;28;20461;-84
2021/07/01 07:10:59;;;;;;;12.13;6.80;;;16.20;99.90;;;;;;5026357;28;20448;-86
2021/07/01 07:13:26;;;;;;;10.73;7.10;;;16.10;99.90;;;;;;5012480;28;20950;-80
2021/07/01 07:15:57;;;;;;;11.17;7.00;;;16.20;99.90;;;;;;5013911;28;20540;-85
2021/07/01 07:18:26;;;;;;;8.80;6.60;;;16.20;99.90;;;;;;5014588;28;20577;-87
2021/07/01 07:20:58;;;;;;;9.67;5.80;;;16.20;99.90;;;;;;5011940;28;20449;-86
2021/07/01 07:23:32;;;;;;;11.33;6.60;;;16.20;99.90;;;;;;5017812;28;20563;-86
2021/07/01 07:26:12;;;;;;;6.20;5.60;;;16.20;99.90;;;;;;5039120;28;20472;-85
2021/07/01 07:28:41;;;;;;;10.27;5.23;;;16.20;99.90;;;;;;5036700;28;20488;-86
2021/07/01 07:31:11;;;;;;;5.93;5.00;;;16.20;99.90;;;;;;5037639;28;20459;-88
2021/07/01 07:33:38;;;;;;;7.33;5.80;;;16.10;99.90;;;;;;5019761;28;21262;-88
2021/07/01 07:36:06;;;;;;;10.50;6.33;;;16.00;99.90;;;;;;5019725;28;20472;-84
2021/07/01 07:38:34;;;;;;;7.13;5.80;;;16.00;99.90;;;;;;5018709;28;20464;-85
2021/07/01 07:41:01;;;;;;;12.10;6.50;;;16.00;99.90;;;;;;5018056;28;20464;-86
2021/07/01 07:43:38;;;;;;;7.80;5.50;;;16.00;99.90;;;;;;5020079;28;20452;-87
2021/07/01 07:46:16;;;;;;;8.73;5.70;;;16.00;99.90;;;;;;5021746;28;20762;-87
2021/07/01 07:49:08;;;;;;;13.20;6.67;;;16.10;99.90;;;;;;5009993;28;20441;-85
2021/07/01 07:51:50;;;;;;;12.10;5.77;;;16.20;99.90;;;;;;5012746;28;21297;-86
2021/07/01 07:54:33;;;;;;;9.90;5.40;;;16.20;99.90;;;;;;5019849;28;20513;-86
2021/07/01 07:57:23;;;;;;;9.87;5.77;;;16.30;99.90;;;;;;5018256;28;20476;-86
2021/07/01 07:59:52;;;;;;;7.07;5.63;;;16.40;99.90;;;;;;5019071;28;20499;-84
2021/07/01 08:02:49;;;;;;;10.67;5.30;;;16.50;99.90;;;;;;5019335;28;20433;-85
2021/07/01 08:05:33;;;;;;;7.13;5.33;;;16.40;99.90;;;;;;5023321;28;20483;-85
2021/07/01 08:08:15;;;;;;;9.23;5.90;;;16.40;99.90;;;;;;5025176;28;20462;-85
2021/07/01 08:10:48;;;;;;;7.43;4.53;;;16.50;99.90;;;;;;5024448;28;20477;-89
2021/07/01 08:13:42;;;;;;;6.23;4.60;;;16.50;99.90;;;;;;5042014;28;20471;-87
2021/07/01 08:16:35;;;;;;;8.47;4.70;;;16.60;99.90;;;;;;5023064;28;20448;-88
2021/07/01 08:19:17;;;;;;;10.30;5.67;;;16.70;99.90;;;;;;5022213;28;20435;-87
2021/07/01 08:21:47;;;;;;;8.07;5.43;;;16.80;99.90;;;;;;5021434;28;20459;-84
2021/07/01 08:24:17;;;;;;;6.83;5.00;;;16.90;99.90;;;;;;5022398;28;20519;-87
2021/07/01 08:27:13;;;;;;;6.63;4.87;;;17.00;99.90;;;;;;5025373;28;20515;-88
2021/07/01 08:30:08;;;;;;;9.03;5.20;;;17.10;99.90;;;;;;5020656;28;20476;-87
2021/07/01 08:33:35;;;;;;;9.07;5.40;;;17.10;99.90;;;;;;4947351;28;20437;-86
2021/07/01 08:36:27;;;;;;;7.10;4.90;;;17.10;99.90;;;;;;5065523;23;20504;-85
2021/07/01 08:39:10;;;;;;;9.47;5.03;;;16.90;99.90;;;;;;5042642;28;20543;-87
2021/07/01 08:42:01;;;;;;;5.97;5.00;;;16.90;99.90;;;;;;5001495;28;20500;-85
2021/07/01 08:44:44;;;;;;;7.90;5.60;;;16.90;99.90;;;;;;5003469;28;20506;-88
2021/07/01 08:47:20;;;;;;;7.20;4.90;;;17.00;99.90;;;;;;4992277;28;20466;-90
2021/07/01 08:49:54;;;;;;;9.20;5.30;;;17.00;99.90;;;;;;4975205;28;20532;-88
2021/07/01 08:52:25;;;;;;;10.70;6.23;;;17.10;99.90;;;;;;4989121;28;20491;-85
2021/07/01 08:55:04;;;;;;;7.37;5.73;;;17.20;99.90;;;;;;4981515;28;20510;-89
2021/07/01 08:57:35;;;;;;;9.53;5.50;;;17.20;99.90;;;;;;4975174;28;20431;-88
2021/07/01 09:00:12;;;;;;;7.40;5.80;;;17.20;99.90;;;;;;4975606;28;20469;-86
2021/07/01 09:03:03;;;;;;;8.63;4.80;;;17.20;99.90;;;;;;5007891;28;20475;-85
2021/07/01 09:05:35;;;;;;;6.70;4.97;;;17.30;99.90;;;;;;4987470;28;20510;-88
2021/07/01 09:08:08;;;;;;;8.27;5.50;;;17.20;99.90;;;;;;4975379;28;20563;-88
2021/07/01 09:10:36;;;;;;;9.30;8.17;;;17.10;99.90;;;;;;4977915;28;20463;-87
2021/07/01 09:13:10;;;;;;;10.77;7.50;;;17.10;99.90;;;;;;4980606;28;21099;-87
2021/07/01 09:15:37;;;;;;;12.40;10.53;;;17.20;99.90;;;;;;4999803;28;20482;-86
2021/07/01 09:18:08;;;;;;;9.97;8.50;;;17.10;99.90;;;;;;4986286;28;20481;-86
2021/07/01 09:20:38;;;;;;;6.57;5.90;;;17.20;99.90;;;;;;5020894;28;20488;-87
2021/07/01 09:23:34;;;;;;;8.20;6.60;;;17.20;99.90;;;;;;5021741;28;20525;-87
2021/07/01 09:26:40;;;;;;;8.37;5.40;;;17.10;99.90;;;;;;5017383;28;20485;-87
2021/07/01 09:29:11;;;;;;;6.40;4.97;;;17.00;99.90;;;;;;5015610;28;20529;-88
2021/07/01 09:31:41;;;;;;;11.33;6.73;;;17.00;99.90;;;;;;5013055;28;20469;-86
2021/07/01 09:34:23;;;;;;;8.03;5.97;;;17.00;99.90;;;;;;5015435;28;20501;-86
2021/07/01 09:37:02;;;;;;;8.83;6.47;;;17.00;99.90;;;;;;5015434;28;20449;-87
2021/07/01 09:39:33;;;;;;;7.60;5.97;;;17.10;99.90;;;;;;5014239;28;20485;-87
2021/07/01 09:42:04;;;;;;;10.23;5.90;;;17.00;99.90;;;;;;4664982;28;9999738;-85
2021/07/01 09:45:19;;;;;;;10.43;6.83;;;17.00;99.90;;;;;;5009734;28;20231;-87
2021/07/01 09:47:52;;;;;;;10.30;6.57;;;17.10;99.90;;;;;;5024516;28;20454;-85
2021/07/01 09:50:24;;;;;;;14.33;6.70;;;17.00;99.90;;;;;;5034617;28;20462;-86
2021/07/01 09:53:02;;;;;;;28.77;11.57;;;17.10;99.90;;;;;;5012535;28;20489;-87
2021/07/01 09:55:48;;;;;;;16.40;7.13;;;17.10;99.90;;;;;;5009302;28;20493;-87
2021/07/01 09:58:30;;;;;;;10.53;6.40;;;17.10;99.90;;;;;;5007358;28;21054;-87
2021/07/01 10:00:57;;;;;;;9.00;6.13;;;17.10;99.90;;;;;;5012809;28;20580;-87
2021/07/01 10:03:24;;;;;;;9.17;5.80;;;17.10;99.90;;;;;;5025207;28;20545;-84
2021/07/01 10:05:51;;;;;;;9.63;6.40;;;17.10;99.90;;;;;;5006779;28;22015;-85
2021/07/01 10:08:18;;;;;;;8.50;6.10;;;17.00;99.90;;;;;;5007353;28;20454;-90
2021/07/01 10:10:49;;;;;;;7.13;5.33;;;17.00;99.90;;;;;;5007187;28;21667;-85
2021/07/01 10:13:20;;;;;;;7.37;5.60;;;16.90;99.90;;;;;;5013767;28;20594;-84
2021/07/01 10:15:51;;;;;;;8.10;5.80;;;16.90;99.90;;;;;;5019989;28;20564;-86
2021/07/01 10:18:20;;;;;;;8.07;6.20;;;16.90;99.90;;;;;;5014999;28;20448;-85
2021/07/01 10:20:57;;;;;;;7.77;5.70;;;16.90;99.90;;;;;;5013456;28;20454;-84
2021/07/01 10:23:33;;;;;;;8.50;5.40;;;16.90;99.90;;;;;;5003807;28;20797;-87
2021/07/01 10:26:13;;;;;;;8.80;6.53;;;16.90;99.90;;;;;;5008858;28;20508;-83
2021/07/01 10:28:40;;;;;;;5.87;5.30;;;16.90;99.90;;;;;;5014046;28;20840;-84
2021/07/01 10:31:13;;;;;;;6.10;5.50;;;17.00;99.90;;;;;;5011619;28;20453;-83
2021/07/01 10:33:42;;;;;;;6.53;5.20;;;16.90;99.90;;;;;;5012971;28;20551;-83
2021/07/01 10:36:31;;;;;;;11.90;5.30;;;16.90;99.90;;;;;;5066374;22;20557;-83
2021/07/01 10:39:52;;;;;;;7.53;5.30;;;17.00;99.90;;;;;;4998701;28;20482;-84
2021/07/01 10:43:27;;;;;;;6.73;4.53;;;17.00;99.90;;;;;;5009738;28;20433;-85
2021/07/01 10:45:58;;;;;;;5.93;4.60;;;17.00;99.90;;;;;;4992918;28;20507;-85
2021/07/01 10:48:29;;;;;;;7.07;4.83;;;17.00;99.90;;;;;;4971566;28;20487;-83
2021/07/01 10:51:08;;;;;;;7.00;4.70;;;17.00;99.90;;;;;;4979214;28;20867;-85
2021/07/01 10:53:46;;;;;;;6.20;5.07;;;17.00;99.90;;;;;;4986462;28;20450;-86
2021/07/01 10:56:16;;;;;;;8.60;5.00;;;17.00;99.90;;;;;;4992950;28;20496;-85
2021/07/01 10:58:44;;;;;;;8.17;5.57;;;17.10;99.90;;;;;;5012994;28;20544;-86
2021/07/01 11:01:45;;;;;;;7.53;5.50;;;17.10;99.90;;;;;;5010965;28;20478;-85
2021/07/01 11:04:23;;;;;;;5.43;4.93;;;17.10;99.90;;;;;;4981125;28;20784;-85
2021/07/01 11:07:40;;;;;;;6.23;5.27;;;17.20;99.90;;;;;;4973972;28;21111;-84
2021/07/01 11:10:38;;;;;;;6.70;5.00;;;17.10;99.90;;;;;;4961961;28;20544;-85
2021/07/01 11:13:43;;;;;;;;;;;;;;;;;;;;;
2021/07/01 11:16:49;;;;;;;7.50;6.07;;;17.10;99.90;;;;;;5014608;28;20536;-83
2021/07/01 11:19:41;;;;;;;8.90;6.20;;;17.10;99.90;;;;;;5016620;28;20464;-83
2021/07/01 11:23:00;;;;;;;;;;;;;;;;;;;;;
2021/07/01 11:26:23;;;;;;;6.70;5.33;;;17.20;99.90;;;;;;5031699;28;20638;-85
2021/07/01 11:30:06;;;;;;;7.20;5.70;;;17.30;99.90;;;;;;4996440;28;20548;-85
2021/07/01 11:33:22;;;;;;;6.40;5.17;;;17.40;99.90;;;;;;4947789;28;20653;-84
2021/07/01 11:36:33;;;;;;;7.40;4.60;;;17.50;99.90;;;;;;4968995;28;20491;-87
2021/07/01 11:39:37;;;;;;;8.10;5.30;;;17.50;99.90;;;;;;4959402;28;21309;-85
2021/07/01 11:42:32;;;;;;;5.70;4.70;;;17.60;99.90;;;;;;4965761;28;20468;-84
2021/07/01 11:45:22;;;;;;;6.23;4.33;;;17.60;99.90;;;;;;4916490;28;20472;-84
2021/07/01 11:48:25;;;;;;;7.00;5.23;;;17.60;99.90;;;;;;4966425;28;20462;-84
2021/07/01 11:51:37;;;;;;;8.40;5.47;;;17.50;99.90;;;;;;4967203;28;20450;-84
2021/07/01 11:57:22;;;;;;;8.07;4.67;;;17.50;99.90;;;;;;5034181;28;20465;-84
2021/07/01 12:00:47;;;;;;;8.77;5.20;;;17.50;99.90;;;;;;5028828;28;20444;-86
2021/07/01 12:03:46;;;;;;;6.17;4.87;;;17.50;99.90;;;;;;5003188;28;20429;-86
2021/07/01 12:07:07;;;;;;;7.57;5.57;;;17.50;99.90;;;;;;5017105;28;20549;-87
2021/07/01 12:10:34;;;;;;;6.27;5.27;;;17.30;99.90;;;;;;5021164;28;20458;-85
2021/07/01 12:13:42;;;;;;;7.80;5.40;;;17.30;99.90;;;;;;5026158;28;20449;-86
2021/07/01 12:16:41;;;;;;;6.30;5.13;;;17.30;99.90;;;;;;5030376;28;20548;-84
2021/07/01 12:19:17;;;;;;;6.77;5.30;;;17.30;99.90;;;;;;5029446;28;20459;-85
2021/07/01 12:21:50;;;;;;;6.20;4.90;;;17.20;99.90;;;;;;5039137;28;21060;-85
2021/07/01 12:24:37;;;;;;;6.93;6.23;;;17.30;99.90;;;;;;5033843;28;20507;-85
2021/07/01 12:27:29;;;;;;;6.17;5.60;;;17.30;99.90;;;;;;5030718;28;20456;-86
2021/07/01 12:30:10;;;;;;;5.50;5.00;;;17.30;99.90;;;;;;5031384;28;21777;-84
2021/07/01 12:32:51;;;;;;;8.60;6.67;;;17.30;99.90;;;;;;5019473;28;20486;-84
2021/07/01 12:35:51;;;;;;;7.40;6.00;;;17.30;99.90;;;;;;5029833;28;20483;-85
2021/07/01 12:38:22;;;;;;;10.80;7.20;;;17.20;99.90;;;;;;5022890;28;20602;-85
2021/07/01 12:41:11;;;;;;;8.60;7.40;;;17.20;99.90;;;;;;5029500;28;20457;-85
2021/07/01 12:43:47;;;;;;;9.53;7.17;;;17.20;99.90;;;;;;5030334;28;20495;-85
2021/07/01 12:46:53;;;;;;;10.23;8.40;;;17.20;99.90;;;;;;5024113;28;20453;-86
2021/07/01 12:49:25;;;;;;;8.40;7.03;;;17.20;99.90;;;;;;5033436;28;20457;-87
2021/07/01 12:52:06;;;;;;;12.10;7.17;;;17.20;99.90;;;;;;5033950;28;20466;-85
2021/07/01 12:54:33;;;;;;;11.87;7.33;;;17.30;99.90;;;;;;5040165;28;20484;-85
2021/07/01 12:57:00;;;;;;;15.37;8.63;;;17.30;99.90;;;;;;5035680;28;20532;-85
2021/07/01 12:59:26;;;;;;;10.87;8.67;;;17.30;99.90;;;;;;5041999;28;20506;-85
2021/07/01 13:02:00;;;;;;;9.77;7.73;;;17.30;99.90;;;;;;5047636;28;20468;-86
2021/07/01 13:04:29;;;;;;;11.97;7.77;;;17.30;99.90;;;;;;5041210;28;20468;-86
2021/07/01 13:06:57;;;;;;;10.63;7.80;;;17.40;99.90;;;;;;5038805;28;20467;-86
2021/07/01 13:09:48;;;;;;;11.83;8.50;;;17.40;99.90;;;;;;5034939;28;20777;-85
2021/07/01 13:12:29;;;;;;;11.30;8.03;;;17.50;99.90;;;;;;5031176;28;20563;-86
2021/07/01 13:15:05;;;;;;;9.77;7.93;;;17.40;99.90;;;;;;5030404;28;20472;-85
2021/07/01 13:17:34;;;;;;;10.33;8.00;;;17.40;99.90;;;;;;5031981;28;20456;-84
2021/07/01 13:20:08;;;;;;;15.40;8.27;;;17.40;99.90;;;;;;5046378;28;20452;-83
2021/07/01 13:22:41;;;;;;;12.97;8.50;;;17.30;99.90;;;;;;5026694;28;20448;-83
2021/07/01 13:25:13;;;;;;;12.40;9.20;;;17.20;99.90;;;;;;5028701;28;20848;-83
2021/07/01 13:27:58;;;;;;;11.80;9.07;;;17.20;99.90;;;;;;5039098;28;20454;-84
2021/07/01 13:30:26;;;;;;;11.00;8.63;;;17.20;99.90;;;;;;5022739;28;20458;-85
2021/07/01 13:33:02;;;;;;;10.87;8.67;;;17.20;99.90;;;;;;5028270;28;20561;-85
2021/07/01 13:35:31;;;;;;;17.03;9.17;;;17.20;99.90;;;;;;5029498;28;20493;-86
2021/07/01 13:38:02;;;;;;;8.80;7.90;;;17.10;99.90;;;;;;5047125;28;21029;-85